Time;durP1;ratioP1;P1;durP2;ratioP2;P2;SDS_P1;SDS_P2;PMS_P1;PMS_P2;Temp;Humidity;BMP_temperature;BMP_pressure;BME280_temperature;BME280_humidity;BME280_pressure;Samples;Min_cycle;Max_cycle;Signal;HPM_P1;HPM_P2
2021/08/14 00:01:11;;;;;;;13.75;6.20;;;15.20;99.90;;;;;;5096391;28;20501;-66
2021/08/14 00:03:37;;;;;;;15.95;6.20;;;15.20;99.90;;;;;;5095354;28;20043;-66
2021/08/14 00:06:03;;;;;;;15.70;5.50;;;15.20;99.90;;;;;;5096393;28;20036;-66
2021/08/14 00:08:29;;;;;;;17.73;5.78;;;15.20;99.90;;;;;;5097771;28;20050;-66
2021/08/14 00:10:54;;;;;;;15.07;5.95;;;15.20;99.90;;;;;;5098637;28;20070;-66
2021/08/14 00:13:20;;;;;;;14.20;5.47;;;15.20;99.90;;;;;;5099665;28;20072;-66
2021/08/14 00:15:46;;;;;;;11.05;5.35;;;15.20;99.90;;;;;;5097570;28;20052;-66
2021/08/14 00:18:11;;;;;;;17.05;6.20;;;15.30;99.90;;;;;;5097046;27;20051;-66
2021/08/14 00:20:37;;;;;;;15.13;6.20;;;15.30;99.90;;;;;;5096282;28;20039;-66
2021/08/14 00:23:03;;;;;;;16.50;5.70;;;15.30;99.90;;;;;;5097769;28;20036;-66
2021/08/14 00:25:29;;;;;;;21.27;6.50;;;15.40;99.90;;;;;;5095755;27;20475;-66
2021/08/14 00:27:55;;;;;;;16.73;6.68;;;15.40;99.90;;;;;;5095628;28;20056;-66
2021/08/14 00:30:21;;;;;;;20.50;5.68;;;15.50;99.90;;;;;;5098646;27;20052;-66
2021/08/14 00:32:47;;;;;;;16.98;5.97;;;15.40;99.90;;;;;;5099172;27;20042;-66
2021/08/14 00:35:13;;;;;;;15.60;5.72;;;15.50;99.90;;;;;;5097663;28;20040;-66
2021/08/14 00:37:38;;;;;;;21.55;6.32;;;15.50;99.90;;;;;;5099418;27;20096;-66
2021/08/14 00:40:05;;;;;;;22.52;6.93;;;15.50;99.90;;;;;;5096899;27;20040;-66
2021/08/14 00:42:31;;;;;;;17.63;5.85;;;15.60;99.90;;;;;;5096501;27;20123;-66
2021/08/14 00:44:58;;;;;;;16.08;6.28;;;15.60;99.90;;;;;;5098049;28;20054;-66
2021/08/14 00:47:25;;;;;;;15.68;5.88;;;15.60;99.90;;;;;;5097823;28;20031;-66
2021/08/14 00:49:52;;;;;;;14.45;4.97;;;15.70;99.90;;;;;;5095641;28;20031;-66
2021/08/14 00:52:18;;;;;;;19.33;6.10;;;15.70;99.90;;;;;;5097907;27;20027;-66
2021/08/14 00:54:43;;;;;;;16.10;5.25;;;15.70;99.90;;;;;;5092246;27;20036;-66
2021/08/14 00:57:09;;;;;;;14.85;5.07;;;15.70;99.90;;;;;;5100648;27;20044;-66
2021/08/14 00:59:37;;;;;;;14.23;5.43;;;15.70;99.90;;;;;;5098487;28;20047;-66
2021/08/14 01:02:09;;;;;;;11.73;5.25;;;15.70;99.90;;;;;;5094891;27;20051;-66
2021/08/14 01:04:37;;;;;;;15.05;5.50;;;15.70;99.90;;;;;;5096674;28;20174;-66
2021/08/14 01:07:02;;;;;;;15.45;4.70;;;15.70;99.90;;;;;;5094866;28;20047;-66
2021/08/14 01:09:30;;;;;;;16.10;5.57;;;15.70;99.90;;;;;;5098578;28;20051;-66
2021/08/14 01:12:01;;;;;;;16.30;5.95;;;15.60;99.90;;;;;;5098796;28;20236;-66
2021/08/14 01:14:28;;;;;;;16.35;6.45;;;15.60;99.90;;;;;;5099133;28;20143;-66
2021/08/14 01:16:55;;;;;;;15.02;5.15;;;15.60;99.90;;;;;;5099891;27;20040;-66
2021/08/14 01:19:21;;;;;;;16.75;6.43;;;15.60;99.90;;;;;;5095644;28;20104;-66
2021/08/14 01:21:49;;;;;;;13.93;5.90;;;15.50;99.90;;;;;;5096393;28;20036;-66
2021/08/14 01:24:14;;;;;;;13.75;5.65;;;15.50;99.90;;;;;;5094700;27;20101;-66
2021/08/14 01:26:41;;;;;;;18.48;4.88;;;15.50;99.90;;;;;;5094829;28;20047;-66
2021/08/14 01:29:08;;;;;;;16.70;5.30;;;15.50;99.90;;;;;;5124976;27;20047;-66
2021/08/14 01:31:34;;;;;;;10.43;5.38;;;15.50;99.90;;;;;;5095520;28;20036;-66
2021/08/14 01:34:00;;;;;;;18.88;6.25;;;15.50;99.90;;;;;;5093959;28;20058;-66
2021/08/14 01:36:26;;;;;;;21.45;6.55;;;15.50;99.90;;;;;;5095153;28;20488;-66
2021/08/14 01:38:54;;;;;;;20.50;6.28;;;15.50;99.90;;;;;;5096492;28;20036;-66
2021/08/14 01:41:21;;;;;;;17.40;6.28;;;15.40;99.90;;;;;;5094084;28;20047;-66
2021/08/14 01:43:53;;;;;;;23.88;7.15;;;15.50;99.90;;;;;;5096343;28;20161;-66
2021/08/14 01:46:19;;;;;;;17.83;6.40;;;15.50;99.90;;;;;;5095152;28;20115;-66
2021/08/14 01:48:45;;;;;;;14.52;5.63;;;15.40;99.90;;;;;;5094844;28;20118;-66
2021/08/14 01:51:10;;;;;;;15.18;6.10;;;15.40;99.90;;;;;;5097213;27;20493;-66
2021/08/14 01:53:36;;;;;;;17.25;6.30;;;15.40;99.90;;;;;;5096127;28;20044;-66
2021/08/14 01:56:02;;;;;;;18.02;6.68;;;15.40;99.90;;;;;;5096221;28;20027;-66
2021/08/14 01:58:27;;;;;;;17.98;5.50;;;15.40;99.90;;;;;;5095624;28;20434;-66
2021/08/14 02:00:53;;;;;;;18.40;6.32;;;15.40;99.90;;;;;;5095197;27;20384;-66
2021/08/14 02:03:19;;;;;;;16.48;6.45;;;15.50;99.90;;;;;;5096153;27;20067;-66
2021/08/14 02:05:45;;;;;;;22.40;6.25;;;15.40;99.90;;;;;;5095571;28;20044;-66
2021/08/14 02:08:11;;;;;;;19.50;6.68;;;15.40;99.90;;;;;;5095494;28;20130;-66
2021/08/14 02:10:37;;;;;;;18.98;5.82;;;15.40;99.90;;;;;;5096775;28;20036;-66
2021/08/14 02:13:03;;;;;;;20.00;7.07;;;15.50;99.90;;;;;;5094958;28;20714;-66
2021/08/14 02:15:29;;;;;;;15.55;5.22;;;15.50;99.90;;;;;;5092771;28;20115;-66
2021/08/14 02:17:54;;;;;;;23.05;6.72;;;15.50;99.90;;;;;;5094710;28;20040;-66
2021/08/14 02:20:20;;;;;;;23.63;6.90;;;15.40;99.90;;;;;;5096424;28;20098;-66
2021/08/14 02:22:46;;;;;;;15.93;6.57;;;15.50;99.90;;;;;;5098161;28;20040;-66
2021/08/14 02:25:11;;;;;;;15.40;5.85;;;15.50;99.90;;;;;;5101686;28;20039;-66
2021/08/14 02:27:37;;;;;;;16.63;5.18;;;15.40;99.90;;;;;;5100028;28;20482;-66
2021/08/14 02:30:06;;;;;;;15.43;6.28;;;15.40;99.90;;;;;;5099735;28;20509;-66
2021/08/14 02:32:32;;;;;;;19.30;6.20;;;15.40;99.90;;;;;;5102450;28;20039;-66
2021/08/14 02:34:57;;;;;;;17.67;6.32;;;15.40;99.90;;;;;;5103867;28;20089;-66
2021/08/14 02:37:23;;;;;;;19.98;6.43;;;15.40;99.90;;;;;;5104942;28;20538;-66
2021/08/14 02:39:49;;;;;;;14.73;5.35;;;15.40;99.90;;;;;;5105228;27;20118;-66
2021/08/14 02:42:14;;;;;;;19.15;6.10;;;15.50;99.90;;;;;;5105813;28;20046;-66
2021/08/14 02:44:40;;;;;;;18.25;6.70;;;15.40;99.90;;;;;;5105748;28;20050;-66
2021/08/14 02:47:06;;;;;;;20.27;6.07;;;15.40;99.90;;;;;;5108446;28;20036;-66
2021/08/14 02:49:33;;;;;;;15.05;5.88;;;15.40;99.90;;;;;;5106213;28;20027;-66
2021/08/14 02:51:58;;;;;;;16.17;5.97;;;15.40;99.90;;;;;;5103567;27;20046;-66
2021/08/14 02:54:24;;;;;;;17.38;5.03;;;15.40;99.90;;;;;;5106676;28;20054;-66
2021/08/14 02:56:50;;;;;;;23.42;6.43;;;15.40;99.90;;;;;;5104555;27;20039;-66
2021/08/14 02:59:15;;;;;;;20.92;5.63;;;15.40;99.90;;;;;;5113387;27;20032;-66
2021/08/14 03:01:41;;;;;;;19.00;5.68;;;15.40;99.90;;;;;;5103686;27;20115;-66
2021/08/14 03:04:07;;;;;;;27.30;6.85;;;15.40;99.90;;;;;;5108424;27;20122;-66
2021/08/14 03:06:33;;;;;;;21.02;6.28;;;15.40;99.90;;;;;;5105501;27;20057;-66
2021/08/14 03:08:59;;;;;;;17.35;5.38;;;15.40;99.90;;;;;;5105560;28;20036;-66
2021/08/14 03:11:25;;;;;;;19.90;5.50;;;15.40;99.90;;;;;;5109305;27;20402;-66
2021/08/14 03:13:51;;;;;;;19.67;6.05;;;15.40;99.90;;;;;;5105052;28;20035;-66
2021/08/14 03:16:16;;;;;;;19.38;6.55;;;15.40;99.90;;;;;;5102442;28;20274;-66
2021/08/14 03:18:42;;;;;;;19.38;5.72;;;15.40;99.90;;;;;;5105511;28;20535;-66
2021/08/14 03:21:08;;;;;;;16.67;5.80;;;15.40;99.90;;;;;;5111275;27;20903;-66
2021/08/14 03:23:33;;;;;;;22.65;6.05;;;15.40;99.90;;;;;;5107334;28;20048;-66
2021/08/14 03:25:59;;;;;;;20.25;6.50;;;15.40;99.90;;;;;;5106018;27;20118;-66
2021/08/14 03:28:25;;;;;;;19.83;6.05;;;15.40;99.90;;;;;;5103871;28;20455;-66
2021/08/14 03:30:51;;;;;;;16.70;5.93;;;15.40;99.90;;;;;;5106473;28;20048;-66
2021/08/14 03:33:16;;;;;;;19.30;6.63;;;15.50;99.90;;;;;;5103400;28;20117;-66
2021/08/14 03:35:42;;;;;;;19.40;6.30;;;15.40;99.90;;;;;;5104202;27;20051;-66
2021/08/14 03:38:08;;;;;;;22.77;7.47;;;15.50;99.90;;;;;;5106763;28;20633;-66
2021/08/14 03:40:33;;;;;;;17.75;5.97;;;15.40;99.90;;;;;;5101240;28;20032;-66
2021/08/14 03:42:59;;;;;;;19.85;6.78;;;15.50;99.90;;;;;;5104672;28;20426;-66
2021/08/14 03:45:24;;;;;;;19.85;6.20;;;15.50;99.90;;;;;;5104058;28;20036;-66
2021/08/14 03:47:50;;;;;;;19.40;6.88;;;15.50;99.90;;;;;;5103413;27;20117;-66
2021/08/14 03:50:16;;;;;;;15.75;6.18;;;15.50;99.90;;;;;;5103836;28;20433;-66
2021/08/14 03:52:41;;;;;;;18.67;6.22;;;15.40;99.90;;;;;;5101140;28;20062;-66
2021/08/14 03:55:09;;;;;;;21.45;6.40;;;15.50;99.90;;;;;;5107198;28;20446;-66
2021/08/14 03:57:35;;;;;;;19.95;6.65;;;15.40;99.90;;;;;;5105630;27;20078;-66
2021/08/14 04:00:01;;;;;;;18.15;7.47;;;15.50;99.90;;;;;;5104211;27;20741;-66
2021/08/14 04:02:27;;;;;;;22.02;7.30;;;15.50;99.90;;;;;;5100794;28;20035;-66
2021/08/14 04:04:53;;;;;;;20.67;6.43;;;15.50;99.90;;;;;;5108320;27;20028;-66
2021/08/14 04:07:19;;;;;;;21.58;6.55;;;15.50;99.90;;;;;;5105827;27;20044;-66
2021/08/14 04:09:44;;;;;;;24.13;6.85;;;15.50;99.90;;;;;;5100986;27;20044;-66
2021/08/14 04:12:10;;;;;;;19.83;6.82;;;15.50;99.90;;;;;;5100899;27;20032;-66
2021/08/14 04:14:37;;;;;;;23.40;7.00;;;15.50;99.90;;;;;;5103050;28;20047;-66
2021/08/14 04:17:03;;;;;;;23.83;7.10;;;15.50;99.90;;;;;;5100958;28;20032;-66
2021/08/14 04:19:29;;;;;;;19.98;6.85;;;15.50;99.90;;;;;;5104265;28;20071;-66
2021/08/14 04:21:55;;;;;;;23.45;7.35;;;15.50;99.90;;;;;;5101537;28;20465;-66
2021/08/14 04:24:20;;;;;;;17.77;6.95;;;15.50;99.90;;;;;;5104627;28;20040;-66
2021/08/14 04:26:46;;;;;;;20.38;6.75;;;15.50;99.90;;;;;;5104288;28;20419;-66
2021/08/14 04:29:12;;;;;;;20.70;6.47;;;15.40;99.90;;;;;;5105785;28;20397;-66
2021/08/14 04:31:38;;;;;;;22.13;6.97;;;15.40;99.90;;;;;;5104469;28;20428;-66
2021/08/14 04:34:04;;;;;;;21.13;7.05;;;15.50;99.90;;;;;;5103342;28;20042;-66
2021/08/14 04:36:30;;;;;;;19.98;7.03;;;15.50;99.90;;;;;;5103796;28;20584;-66
2021/08/14 04:38:55;;;;;;;22.48;6.90;;;15.40;99.90;;;;;;5103610;28;20040;-66
2021/08/14 04:41:21;;;;;;;16.75;6.60;;;15.50;99.90;;;;;;5100045;27;20544;-66
2021/08/14 04:43:47;;;;;;;20.70;6.72;;;15.50;99.90;;;;;;5102477;28;20496;-66
2021/08/14 04:46:13;;;;;;;20.70;7.30;;;15.50;99.90;;;;;;5100307;28;20043;-66
2021/08/14 04:48:39;;;;;;;18.60;6.70;;;15.50;99.90;;;;;;5106133;28;20053;-66
2021/08/14 04:51:05;;;;;;;20.52;7.10;;;15.50;99.90;;;;;;5097274;28;21706;-66
2021/08/14 04:53:31;;;;;;;25.02;7.90;;;15.40;99.90;;;;;;5107650;28;20067;-66
2021/08/14 04:55:56;;;;;;;23.00;7.20;;;15.50;99.90;;;;;;5100860;28;20040;-66
2021/08/14 04:58:22;;;;;;;22.73;7.07;;;15.50;99.90;;;;;;5100200;27;20043;-66
2021/08/14 05:00:48;;;;;;;23.77;7.32;;;15.50;99.90;;;;;;5101603;28;20039;-66
2021/08/14 05:03:16;;;;;;;22.75;7.50;;;15.60;99.90;;;;;;5101944;28;20039;-66
2021/08/14 05:05:43;;;;;;;21.67;7.28;;;15.60;99.90;;;;;;5107044;28;20385;-66
2021/08/14 05:08:08;;;;;;;24.20;7.22;;;15.60;99.90;;;;;;5096324;28;20040;-66
2021/08/14 05:10:35;;;;;;;24.23;7.40;;;15.70;99.90;;;;;;5096627;28;20480;-66
2021/08/14 05:13:00;;;;;;;23.40;6.82;;;15.80;99.90;;;;;;5097012;28;20035;-66
2021/08/14 05:15:26;;;;;;;18.20;6.50;;;15.90;99.90;;;;;;5094632;28;20119;-66
2021/08/14 05:17:52;;;;;;;17.05;5.70;;;16.20;99.90;;;;;;5095861;28;20042;-66
2021/08/14 05:20:17;;;;;;;18.65;6.93;;;16.30;99.90;;;;;;5094433;28;20436;-66
2021/08/14 05:22:44;;;;;;;17.15;6.00;;;16.30;99.90;;;;;;5093625;28;20075;-66
2021/08/14 05:25:10;;;;;;;18.23;6.05;;;16.40;99.90;;;;;;5092883;27;20472;-66
2021/08/14 05:27:36;;;;;;;15.68;5.55;;;16.60;99.90;;;;;;5094803;28;20036;-66
2021/08/14 05:30:02;;;;;;;18.15;5.97;;;17.20;99.90;;;;;;5094290;28;20036;-66
2021/08/14 05:32:28;;;;;;;15.93;5.28;;;17.90;99.90;;;;;;5093420;28;20055;-66
2021/08/14 05:34:54;;;;;;;15.35;5.00;;;18.60;99.90;;;;;;5094047;28;20044;-66
2021/08/14 05:37:19;;;;;;;12.02;5.38;;;19.00;99.90;;;;;;5098933;28;20044;-66
2021/08/14 05:39:45;;;;;;;18.27;6.22;;;19.40;99.90;;;;;;5091289;28;20031;-66
2021/08/14 05:42:11;;;;;;;14.77;4.88;;;20.20;99.90;;;;;;5092631;28;20164;-66
2021/08/14 05:44:40;;;;;;;20.05;5.32;;;21.30;99.90;;;;;;5098468;28;20039;-66
2021/08/14 05:47:06;;;;;;;14.48;5.13;;;22.30;99.90;;;;;;5096118;28;20043;-66
2021/08/14 05:49:31;;;;;;;21.92;6.25;;;22.90;99.90;;;;;;5095416;28;20045;-66
2021/08/14 05:51:59;;;;;;;14.07;5.18;;;23.50;99.90;;;;;;5097270;28;20120;-66
2021/08/14 05:54:25;;;;;;;15.43;5.32;;;24.30;99.90;;;;;;5095905;28;20043;-67
2021/08/14 05:56:51;;;;;;;21.13;5.47;;;25.20;99.90;;;;;;5091157;28;20036;-67
2021/08/14 05:59:16;;;;;;;12.88;4.68;;;25.30;98.40;;;;;;5094092;28;20119;-67
2021/08/14 06:01:43;;;;;;;15.05;5.45;;;25.90;97.10;;;;;;5096940;28;20632;-67
2021/08/14 06:04:08;;;;;;;17.45;5.78;;;26.40;95.60;;;;;;5092405;28;20050;-66
2021/08/14 06:06:44;;;;;;;21.13;6.18;;;27.00;94.00;;;;;;5092410;28;20043;-67
2021/08/14 06:09:10;;;;;;;21.23;7.28;;;27.50;91.20;;;;;;5094993;28;20499;-67
2021/08/14 06:11:36;;;;;;;15.82;5.57;;;27.90;90.10;;;;;;5093991;28;20080;-67
2021/08/14 06:14:02;;;;;;;12.68;6.10;;;27.70;85.00;;;;;;5096256;28;20043;-67
2021/08/14 06:16:28;;;;;;;16.75;5.93;;;27.90;86.30;;;;;;5094023;28;20035;-67
2021/08/14 06:18:53;;;;;;;16.15;5.82;;;28.30;83.50;;;;;;5095981;28;20039;-67
2021/08/14 06:21:19;;;;;;;14.45;6.07;;;28.80;80.90;;;;;;5093610;28;20032;-67
2021/08/14 06:23:45;;;;;;;13.05;5.20;;;29.30;76.40;;;;;;5092859;28;20034;-67
2021/08/14 06:26:11;;;;;;;19.65;6.35;;;30.00;74.10;;;;;;5093731;28;20047;-67
2021/08/14 06:28:38;;;;;;;19.48;7.22;;;30.50;69.70;;;;;;5099678;28;20490;-67
2021/08/14 06:31:04;;;;;;;20.45;6.45;;;30.50;66.00;;;;;;5094399;28;20036;-67
2021/08/14 06:33:40;;;;;;;20.10;6.63;;;29.90;67.50;;;;;;5094746;28;20171;-66
2021/08/14 06:36:07;;;;;;;16.38;6.40;;;28.80;70.20;;;;;;5093657;28;20493;-67
2021/08/14 06:38:33;;;;;;;18.48;6.57;;;27.80;76.60;;;;;;5100317;28;20039;-67
2021/08/14 06:40:59;;;;;;;21.98;7.35;;;26.60;84.00;;;;;;5093248;28;20048;-67
2021/08/14 06:43:25;;;;;;;22.05;6.40;;;25.80;91.40;;;;;;5093637;28;20051;-67
2021/08/14 06:45:50;;;;;;;18.02;7.32;;;24.80;95.40;;;;;;5092463;28;20393;-67
2021/08/14 06:48:16;;;;;;;20.30;6.65;;;24.10;98.50;;;;;;5091622;28;20051;-67
2021/08/14 06:50:42;;;;;;;21.85;8.50;;;23.50;99.90;;;;;;5093038;28;20543;-67
2021/08/14 06:53:08;;;;;;;22.15;7.95;;;22.80;99.90;;;;;;5096526;28;20376;-66
2021/08/14 06:55:33;;;;;;;23.20;7.25;;;22.50;99.90;;;;;;5094764;28;20063;-66
2021/08/14 06:58:00;;;;;;;21.80;7.80;;;22.20;99.90;;;;;;5099574;28;20473;-67
2021/08/14 07:00:26;;;;;;;19.48;7.53;;;21.90;99.90;;;;;;5096820;28;20403;-66
2021/08/14 07:02:52;;;;;;;26.58;8.73;;;21.70;99.90;;;;;;5094655;28;20048;-66
2021/08/14 07:05:18;;;;;;;21.48;7.53;;;21.50;99.90;;;;;;5095433;28;20044;-66
2021/08/14 07:07:44;;;;;;;23.75;8.57;;;21.30;99.90;;;;;;5097269;28;20418;-66
2021/08/14 07:10:10;;;;;;;25.05;9.07;;;21.10;99.90;;;;;;5092281;28;20036;-66
2021/08/14 07:12:36;;;;;;;25.25;8.70;;;20.90;99.90;;;;;;5092366;28;20036;-67
2021/08/14 07:15:02;;;;;;;27.45;7.78;;;20.80;99.90;;;;;;5092317;28;20066;-66
2021/08/14 07:17:28;;;;;;;20.98;7.70;;;20.90;99.90;;;;;;5094249;28;20100;-66
2021/08/14 07:19:54;;;;;;;22.80;7.88;;;20.80;99.90;;;;;;5095202;28;20035;-67
2021/08/14 07:22:19;;;;;;;22.75;8.40;;;20.90;99.90;;;;;;5093184;28;20951;-67
2021/08/14 07:24:45;;;;;;;25.42;7.80;;;21.10;99.90;;;;;;5094563;27;20040;-67
2021/08/14 07:27:11;;;;;;;21.02;7.60;;;21.20;99.90;;;;;;5095391;28;20557;-67
2021/08/14 07:29:36;;;;;;;23.45;8.80;;;21.20;99.90;;;;;;5098947;28;20043;-66
2021/08/14 07:32:02;;;;;;;19.98;9.07;;;21.20;99.90;;;;;;5097726;28;20063;-67
2021/08/14 07:34:28;;;;;;;23.20;7.68;;;21.10;99.90;;;;;;5099588;28;20088;-67
2021/08/14 07:36:54;;;;;;;17.25;8.18;;;21.10;99.90;;;;;;5096546;28;20498;-68
2021/08/14 07:39:19;;;;;;;24.30;7.82;;;21.10;99.90;;;;;;5095187;28;20055;-66
2021/08/14 07:41:45;;;;;;;27.10;8.05;;;21.40;99.90;;;;;;5097283;28;20516;-67
2021/08/14 07:44:11;;;;;;;23.70;8.30;;;21.70;99.90;;;;;;5100061;28;20066;-65
2021/08/14 07:46:37;;;;;;;25.25;7.82;;;22.00;99.90;;;;;;5097957;27;20044;-64
2021/08/14 07:49:02;;;;;;;14.45;6.50;;;22.10;99.90;;;;;;5096860;28;20032;-64
2021/08/14 07:51:28;;;;;;;21.48;7.25;;;22.20;99.90;;;;;;5097416;28;20032;-64
2021/08/14 07:53:54;;;;;;;22.65;7.63;;;22.30;99.90;;;;;;5097129;28;20136;-64
2021/08/14 07:56:19;;;;;;;19.42;7.53;;;22.50;99.90;;;;;;5098714;28;20031;-64
2021/08/14 07:58:45;;;;;;;19.10;7.88;;;22.40;99.90;;;;;;5102473;27;20184;-64
2021/08/14 08:01:11;;;;;;;19.85;7.28;;;22.40;99.90;;;;;;5096358;28;20043;-64
2021/08/14 08:03:36;;;;;;;17.48;6.88;;;22.30;99.90;;;;;;5096283;28;20043;-64
2021/08/14 08:06:02;;;;;;;21.48;6.38;;;22.20;99.90;;;;;;5099312;28;20472;-64
2021/08/14 08:08:28;;;;;;;19.67;6.22;;;22.10;99.90;;;;;;5094417;27;20077;-64
2021/08/14 08:10:53;;;;;;;19.23;5.60;;;22.00;99.90;;;;;;5097928;27;20552;-67
2021/08/14 08:13:19;;;;;;;18.50;5.20;;;22.10;99.90;;;;;;5096926;28;20048;-67
2021/08/14 08:15:45;;;;;;;17.70;5.45;;;22.30;99.90;;;;;;5097124;28;20036;-67
2021/08/14 08:18:12;;;;;;;17.30;6.50;;;22.40;99.90;;;;;;5094518;28;20087;-67
2021/08/14 08:20:39;;;;;;;19.00;5.75;;;22.40;99.90;;;;;;5097425;28;20040;-67
2021/08/14 08:23:04;;;;;;;18.00;5.25;;;22.40;99.90;;;;;;5097126;28;20034;-67
2021/08/14 08:25:30;;;;;;;14.23;5.07;;;22.50;99.90;;;;;;5095243;28;20035;-67
2021/08/14 08:28:01;;;;;;;17.92;4.70;;;22.50;99.90;;;;;;5097450;28;20043;-67
2021/08/14 08:30:27;;;;;;;15.95;5.30;;;22.60;99.90;;;;;;5096085;28;20380;-67
2021/08/14 08:32:53;;;;;;;13.10;4.72;;;22.60;99.90;;;;;;5099796;28;20047;-67
2021/08/14 08:35:19;;;;;;;19.60;4.90;;;22.70;99.90;;;;;;5094770;28;20969;-67
2021/08/14 08:37:45;;;;;;;18.58;5.40;;;22.90;99.90;;;;;;5094776;28;20070;-67
2021/08/14 08:40:12;;;;;;;18.35;4.93;;;23.00;99.90;;;;;;5095047;28;20040;-67
2021/08/14 08:42:39;;;;;;;13.23;4.30;;;23.10;99.90;;;;;;5096516;28;20036;-67
2021/08/14 08:45:05;;;;;;;15.10;5.60;;;23.00;99.90;;;;;;5095777;28;20054;-67
2021/08/14 08:47:33;;;;;;;13.63;3.50;;;22.90;99.90;;;;;;5095048;28;20482;-67
2021/08/14 08:49:59;;;;;;;15.25;3.95;;;22.70;99.90;;;;;;5095711;28;20035;-67
2021/08/14 08:52:25;;;;;;;15.00;3.97;;;22.80;99.90;;;;;;5094387;28;20036;-67
2021/08/14 08:54:52;;;;;;;12.48;4.40;;;23.00;99.90;;;;;;5096281;28;20048;-67
2021/08/14 08:57:18;;;;;;;14.65;5.03;;;23.20;99.90;;;;;;5094481;28;20075;-67
2021/08/14 08:59:46;;;;;;;15.65;5.13;;;23.50;99.90;;;;;;5095269;28;20042;-67
2021/08/14 09:02:33;;;;;;;15.77;4.88;;;23.70;99.90;;;;;;5096235;28;20032;-66
2021/08/14 09:05:16;;;;;;;13.48;4.78;;;23.70;99.90;;;;;;5096933;28;20047;-66
2021/08/14 09:07:44;;;;;;;14.93;4.53;;;23.50;99.90;;;;;;5094346;27;20032;-66
2021/08/14 09:10:18;;;;;;;17.52;5.55;;;23.40;99.90;;;;;;5099559;28;20047;-67
2021/08/14 09:12:45;;;;;;;17.27;5.93;;;23.50;99.90;;;;;;5100379;28;20039;-66
2021/08/14 09:15:19;;;;;;;12.88;4.88;;;23.60;99.90;;;;;;5102956;28;20035;-67
2021/08/14 09:17:45;;;;;;;17.38;6.22;;;23.80;99.90;;;;;;5100856;28;20188;-67
2021/08/14 09:20:17;;;;;;;15.82;5.78;;;23.90;99.90;;;;;;5102652;28;20138;-67
2021/08/14 09:23:05;;;;;;;23.90;8.38;;;24.00;99.90;;;;;;5102683;28;20032;-67
2021/08/14 09:25:39;;;;;;;15.02;5.40;;;24.00;99.90;;;;;;5098081;28;20480;-67
2021/08/14 09:28:05;;;;;;;15.20;5.20;;;24.00;99.90;;;;;;5102023;28;20042;-67
2021/08/14 09:30:46;;;;;;;13.80;4.97;;;24.00;99.90;;;;;;5102334;28;20296;-67
2021/08/14 09:33:14;;;;;;;13.95;4.72;;;24.00;99.90;;;;;;5102231;28;20389;-67
2021/08/14 09:35:45;;;;;;;9.30;4.63;;;23.80;99.90;;;;;;5104360;28;20036;-67
2021/08/14 09:38:13;;;;;;;19.73;4.68;;;23.80;99.90;;;;;;5101595;28;20116;-67
2021/08/14 09:40:46;;;;;;;12.77;4.38;;;23.70;99.90;;;;;;5104162;28;20039;-67
2021/08/14 09:43:14;;;;;;;18.08;5.88;;;23.50;99.90;;;;;;5100953;28;20042;-67
2021/08/14 09:45:53;;;;;;;15.18;4.90;;;23.40;99.90;;;;;;5100517;28;20127;-67
2021/08/14 09:48:21;;;;;;;15.43;5.32;;;23.30;99.90;;;;;;5100605;28;20448;-66
2021/08/14 09:50:47;;;;;;;14.65;4.50;;;23.20;99.90;;;;;;5106698;27;20169;-67
2021/08/14 09:53:17;;;;;;;16.65;5.03;;;23.10;99.90;;;;;;5104185;28;20123;-67
2021/08/14 09:55:45;;;;;;;15.18;4.90;;;22.90;99.90;;;;;;5100803;28;20039;-67
2021/08/14 09:58:14;;;;;;;17.15;5.40;;;22.70;99.90;;;;;;5098811;28;20044;-66
2021/08/14 10:00:41;;;;;;;21.73;6.35;;;22.70;99.90;;;;;;5101933;28;20039;-66
2021/08/14 10:03:07;;;;;;;17.63;5.75;;;22.50;99.90;;;;;;5105572;28;20106;-67
2021/08/14 10:05:34;;;;;;;17.10;6.07;;;22.40;99.90;;;;;;5103554;28;20363;-66
2021/08/14 10:08:01;;;;;;;15.63;5.20;;;22.40;99.90;;;;;;5101642;28;20037;-66
2021/08/14 10:10:27;;;;;;;17.77;5.32;;;22.30;99.90;;;;;;5098496;27;20050;-66
2021/08/14 10:12:56;;;;;;;14.13;5.13;;;22.40;99.90;;;;;;5102298;28;20169;-66
2021/08/14 10:15:22;;;;;;;13.05;5.15;;;22.30;99.90;;;;;;5103223;28;20099;-66
2021/08/14 10:17:48;;;;;;;18.50;5.65;;;22.30;99.90;;;;;;5101864;28;20107;-65
2021/08/14 10:20:14;;;;;;;17.45;5.72;;;22.20;99.90;;;;;;5102622;28;20043;-65
2021/08/14 10:22:41;;;;;;;16.83;5.05;;;22.20;99.90;;;;;;5100032;28;20047;-65
2021/08/14 10:25:14;;;;;;;15.25;4.95;;;22.30;99.90;;;;;;5102151;28;20150;-65
2021/08/14 10:27:55;;;;;;;16.77;5.60;;;22.20;99.90;;;;;;5101188;28;20043;-65
2021/08/14 10:30:46;;;;;;;12.45;5.15;;;22.20;99.90;;;;;;5098701;28;20665;-65
2021/08/14 10:33:27;;;;;;;19.40;6.35;;;22.10;99.90;;;;;;5099934;28;20371;-65
2021/08/14 10:35:54;;;;;;;14.70;5.30;;;22.10;99.90;;;;;;5104022;28;20089;-65
2021/08/14 10:38:40;;;;;;;19.65;4.97;;;22.00;99.90;;;;;;5104571;28;20170;-65
2021/08/14 10:41:07;;;;;;;;;;;22.00;99.90;;;;;;5102710;28;20031;-65
2021/08/14 10:43:54;;;;;;;16.63;5.93;;;22.00;99.90;;;;;;5099912;28;19938;-65
2021/08/14 10:46:39;;;;;;;17.95;6.70;;;22.00;99.90;;;;;;5103383;28;20043;-65
2021/08/14 10:49:07;;;;;;;19.77;6.10;;;22.00;99.90;;;;;;5101995;28;20046;-65
2021/08/14 10:51:49;;;;;;;19.48;5.82;;;22.10;99.90;;;;;;5105988;28;20039;-65
2021/08/14 10:54:44;;;;;;;24.58;6.32;;;22.20;99.90;;;;;;5099539;28;20047;-65
2021/08/14 10:57:09;;;;;;;15.77;5.97;;;22.30;99.90;;;;;;5084103;28;20148;-65
2021/08/14 10:59:35;;;;;;;17.92;6.25;;;22.30;99.90;;;;;;5101392;28;20115;-65
2021/08/14 11:02:09;;;;;;;17.83;6.15;;;22.30;99.90;;;;;;5106537;28;20147;-65
2021/08/14 11:04:37;;;;;;;22.47;7.40;;;22.40;99.90;;;;;;5106448;28;20555;-65
2021/08/14 11:09:48;;;;;;;19.67;5.70;;;22.40;99.90;;;;;;5105706;28;20581;-65
2021/08/14 11:12:35;;;;;;;21.17;7.35;;;22.50;99.90;;;;;;5107986;28;20115;-65
2021/08/14 11:15:19;;;;;;;22.35;6.88;;;22.50;99.90;;;;;;5105556;28;20047;-65
2021/08/14 11:17:47;;;;;;;21.17;6.65;;;22.40;99.90;;;;;;5110391;27;20042;-66
2021/08/14 11:20:19;;;;;;;17.98;6.40;;;22.50;99.90;;;;;;5106979;28;20043;-65
2021/08/14 11:22:49;;;;;;;17.13;5.68;;;22.60;99.90;;;;;;5104483;28;20035;-65
2021/08/14 11:25:25;;;;;;;21.40;6.70;;;22.60;99.90;;;;;;5103718;28;20069;-65
2021/08/14 11:27:57;;;;;;;15.38;5.70;;;22.70;99.90;;;;;;5102957;28;20119;-65
2021/08/14 11:30:26;;;;;;;24.48;6.07;;;22.80;99.90;;;;;;5107712;28;20063;-65
2021/08/14 11:32:53;;;;;;;23.20;5.78;;;22.90;99.90;;;;;;5105068;27;20541;-65
2021/08/14 11:35:21;;;;;;;15.82;5.65;;;22.90;99.90;;;;;;5112266;28;20497;-65
2021/08/14 11:38:08;;;;;;;16.15;5.28;;;22.90;99.90;;;;;;5111073;28;20039;-65
2021/08/14 11:40:40;;;;;;;22.25;5.47;;;22.90;99.90;;;;;;5103391;28;20042;-65
2021/08/14 11:43:17;;;;;;;21.10;4.68;;;23.00;99.90;;;;;;5104443;27;20096;-65
2021/08/14 11:45:45;;;;;;;14.75;5.57;;;22.90;99.90;;;;;;5105994;28;20040;-65
2021/08/14 11:48:13;;;;;;;31.60;6.43;;;22.90;99.90;;;;;;5103384;28;20035;-65
2021/08/14 11:50:41;;;;;;;17.00;5.28;;;22.90;99.90;;;;;;5106834;28;20024;-65
2021/08/14 11:53:09;;;;;;;16.17;5.13;;;22.90;99.90;;;;;;5100659;28;20485;-65
2021/08/14 11:55:35;;;;;;;22.63;7.00;;;22.90;99.90;;;;;;5100864;27;20044;-65
2021/08/14 11:58:01;;;;;;;17.38;5.97;;;22.80;99.90;;;;;;5105806;28;20054;-65
2021/08/14 12:00:29;;;;;;;19.73;7.03;;;22.60;99.90;;;;;;5104158;28;20032;-65
2021/08/14 12:03:09;;;;;;;19.08;5.68;;;22.60;99.90;;;;;;5103717;28;20100;-65
2021/08/14 12:05:37;;;;;;;20.52;6.47;;;22.60;99.90;;;;;;5109770;27;20047;-65
2021/08/14 12:08:03;;;;;;;20.85;7.82;;;22.60;99.90;;;;;;5108096;28;20753;-65
2021/08/14 12:10:29;;;;;;;24.33;7.90;;;22.50;99.90;;;;;;5104176;28;20051;-65
2021/08/14 12:13:00;;;;;;;15.77;6.38;;;22.50;99.90;;;;;;5104075;28;20524;-65
2021/08/14 12:15:39;;;;;;;17.85;6.07;;;22.70;99.90;;;;;;5102857;28;20489;-65
2021/08/14 12:18:05;;;;;;;16.55;6.18;;;22.60;99.90;;;;;;5099746;28;20032;-65
2021/08/14 12:20:32;;;;;;;18.27;5.75;;;22.60;99.90;;;;;;5109370;28;20209;-65
2021/08/14 12:23:19;;;;;;;18.80;5.70;;;22.60;99.90;;;;;;5107501;28;20035;-65
2021/08/14 12:25:50;;;;;;;21.20;6.30;;;22.50;99.90;;;;;;5105303;28;20040;-65
2021/08/14 12:28:16;;;;;;;16.60;5.68;;;22.50;99.90;;;;;;5101065;27;20044;-65
2021/08/14 12:30:43;;;;;;;16.73;5.35;;;22.50;99.90;;;;;;5107652;27;20047;-66
2021/08/14 12:33:26;;;;;;;14.77;5.03;;;22.40;99.90;;;;;;5109519;28;20043;-66
2021/08/14 12:36:00;;;;;;;14.20;4.80;;;22.60;99.90;;;;;;5107380;27;20031;-66
2021/08/14 12:38:28;;;;;;;14.88;5.22;;;22.90;99.90;;;;;;5099283;27;20070;-66
2021/08/14 12:40:54;;;;;;;15.40;5.22;;;23.30;99.90;;;;;;5103949;27;20049;-66
2021/08/14 12:43:21;;;;;;;13.65;4.28;;;23.70;99.90;;;;;;5102638;27;20418;-66